Time;durP1;ratioP1;P1;durP2;ratioP2;P2;SDS_P1;SDS_P2;PMS_P1;PMS_P2;Temp;Humidity;BMP_temperature;BMP_pressure;BME280_temperature;BME280_humidity;BME280_pressure;Samples;Min_cycle;Max_cycle;Signal;HPM_P1;HPM_P2
2023/07/05 00:03:21;;;;;;;8.48;4.15;;;18.10;86.20;;;;;;5002684;28;20023;-71
2023/07/05 00:06:07;;;;;;;5.90;3.70;;;18.00;86.20;;;;;;5004895;28;20033;-70
2023/07/05 00:08:53;;;;;;;7.65;4.90;;;18.00;86.30;;;;;;5001902;28;20133;-71
2023/07/05 00:11:39;;;;;;;5.63;4.13;;;18.00;86.50;;;;;;5006729;28;20038;-68
2023/07/05 00:14:25;;;;;;;6.95;4.13;;;18.00;86.70;;;;;;5001136;28;20092;-68
2023/07/05 00:17:10;;;;;;;7.43;4.70;;;18.00;86.80;;;;;;5007451;28;20034;-68
2023/07/05 00:19:56;;;;;;;9.90;4.65;;;17.90;86.90;;;;;;4994295;28;20030;-68
2023/07/05 00:22:42;;;;;;;9.10;5.10;;;17.90;87.10;;;;;;5001069;28;20042;-68
2023/07/05 00:25:28;;;;;;;11.40;5.22;;;17.80;87.10;;;;;;4993416;28;20027;-68
2023/07/05 00:28:15;;;;;;;10.32;5.55;;;17.80;87.30;;;;;;5008584;28;20061;-68
2023/07/05 00:31:02;;;;;;;9.95;5.80;;;17.70;87.30;;;;;;5009387;28;20061;-68
2023/07/05 00:33:48;;;;;;;6.53;4.63;;;17.70;87.50;;;;;;5000902;28;20521;-68
2023/07/05 00:36:34;;;;;;;7.85;4.65;;;17.70;87.60;;;;;;4996836;28;20375;-68
2023/07/05 00:39:20;;;;;;;8.52;4.50;;;17.70;87.80;;;;;;5001960;28;20041;-68
2023/07/05 00:42:06;;;;;;;8.27;4.88;;;17.60;87.90;;;;;;5009481;28;20044;-68
2023/07/05 00:45:18;;;;;;;9.18;5.40;;;17.60;88.10;;;;;;5005952;28;20397;-68
2023/07/05 00:48:04;;;;;;;6.38;3.92;;;17.60;88.10;;;;;;5006699;28;20042;-68
2023/07/05 00:50:55;;;;;;;8.15;5.22;;;17.50;88.10;;;;;;4993239;28;20017;-68
2023/07/05 00:53:41;;;;;;;8.45;4.88;;;17.50;88.40;;;;;;5002977;28;20113;-68
2023/07/05 00:56:41;;;;;;;8.10;4.10;;;17.50;88.60;;;;;;5011271;28;20144;-68
2023/07/05 00:59:30;;;;;;;5.85;3.80;;;17.50;88.80;;;;;;5005039;28;20112;-68
2023/07/05 01:02:16;;;;;;;7.13;4.15;;;17.50;88.90;;;;;;5007941;28;20061;-68
2023/07/05 01:05:02;;;;;;;9.82;4.80;;;17.50;88.90;;;;;;5011026;28;20030;-68
2023/07/05 01:07:48;;;;;;;8.13;4.30;;;17.40;89.10;;;;;;5008654;28;20069;-68
2023/07/05 01:10:34;;;;;;;10.73;4.13;;;17.40;89.20;;;;;;4993411;28;20438;-68
2023/07/05 01:13:32;;;;;;;7.18;4.28;;;17.40;89.30;;;;;;4993097;28;20807;-68
2023/07/05 01:16:35;;;;;;;7.68;4.28;;;17.40;89.40;;;;;;5009753;28;20088;-68
2023/07/05 01:19:50;;;;;;;6.82;4.70;;;17.30;89.40;;;;;;4998146;28;20030;-67
2023/07/05 01:22:44;;;;;;;9.48;4.40;;;17.30;89.40;;;;;;4997824;28;20038;-67
2023/07/05 01:25:52;;;;;;;5.40;4.25;;;17.30;89.40;;;;;;5011039;28;20030;-68
2023/07/05 01:28:38;;;;;;;8.13;4.38;;;17.20;89.50;;;;;;4992264;28;20473;-66
2023/07/05 01:31:57;;;;;;;6.93;4.22;;;17.20;89.50;;;;;;5007437;28;20048;-66
2023/07/05 01:34:48;;;;;;;14.95;5.10;;;17.20;89.60;;;;;;5006096;28;20080;-68
2023/07/05 01:37:38;;;;;;;10.90;4.80;;;17.20;89.70;;;;;;5008827;28;20125;-68
2023/07/05 01:40:24;;;;;;;7.45;4.20;;;17.10;89.80;;;;;;5007343;28;20033;-70
2023/07/05 01:43:14;;;;;;;8.43;4.78;;;17.10;89.90;;;;;;5007214;28;20898;-71
2023/07/05 01:46:24;;;;;;;8.63;5.00;;;17.10;90.00;;;;;;4997428;28;20038;-70
2023/07/05 01:49:27;;;;;;;8.27;4.00;;;17.10;90.10;;;;;;4990037;28;20038;-70
2023/07/05 01:52:22;;;;;;;7.10;4.35;;;17.10;90.10;;;;;;4988794;28;20038;-71
2023/07/05 01:55:13;;;;;;;6.07;3.95;;;17.10;90.10;;;;;;4989458;28;20046;-70
2023/07/05 01:58:07;;;;;;;11.30;4.90;;;17.10;90.00;;;;;;5005903;28;20045;-70
2023/07/05 02:00:53;;;;;;;5.45;3.70;;;17.10;90.00;;;;;;5004378;28;22727;-70
2023/07/05 02:03:41;;;;;;;6.13;4.45;;;17.20;90.00;;;;;;4996635;28;20022;-70
2023/07/05 02:06:28;;;;;;;7.53;4.43;;;17.20;90.00;;;;;;4988606;28;20030;-73
2023/07/05 02:09:14;;;;;;;9.05;4.72;;;17.20;90.10;;;;;;4993073;28;20058;-72
2023/07/05 02:12:00;;;;;;;7.15;4.20;;;17.20;90.10;;;;;;5008369;28;20042;-72
2023/07/05 02:14:46;;;;;;;8.68;4.30;;;17.20;90.10;;;;;;5006053;28;20104;-72
2023/07/05 02:17:31;;;;;;;8.90;3.83;;;17.20;90.10;;;;;;5007343;28;20038;-73
2023/07/05 02:20:18;;;;;;;7.93;4.35;;;17.20;90.10;;;;;;5002109;28;20040;-73
2023/07/05 02:23:04;;;;;;;6.80;4.05;;;17.20;90.10;;;;;;5010734;28;20494;-73
2023/07/05 02:25:51;;;;;;;8.80;4.88;;;17.20;90.20;;;;;;5011187;28;20034;-72
2023/07/05 02:28:37;;;;;;;7.43;4.38;;;17.20;90.30;;;;;;5004071;28;20119;-72
2023/07/05 02:31:23;;;;;;;5.45;4.13;;;17.10;90.30;;;;;;4993634;28;20130;-73
2023/07/05 02:34:09;;;;;;;8.15;4.40;;;17.10;90.30;;;;;;4998123;28;20038;-74
2023/07/05 02:36:54;;;;;;;7.22;4.43;;;17.10;90.20;;;;;;5013129;28;20034;-74
2023/07/05 02:39:41;;;;;;;5.82;3.85;;;17.10;90.20;;;;;;4998687;28;20464;-74
2023/07/05 02:42:27;;;;;;;7.32;4.20;;;17.10;90.30;;;;;;4993210;28;20031;-74
2023/07/05 02:45:13;;;;;;;6.68;4.40;;;17.00;90.30;;;;;;4994296;28;20499;-74
2023/07/05 02:47:59;;;;;;;8.00;4.20;;;17.00;90.30;;;;;;4999819;28;20521;-74
2023/07/05 02:50:45;;;;;;;6.32;4.00;;;17.00;90.30;;;;;;4998596;28;20525;-74
2023/07/05 02:53:31;;;;;;;8.77;4.55;;;17.00;90.30;;;;;;5005259;28;20033;-74
2023/07/05 02:56:17;;;;;;;6.45;3.60;;;16.90;90.30;;;;;;5013209;28;20042;-73
2023/07/05 02:59:03;;;;;;;6.25;3.83;;;17.00;90.20;;;;;;5002889;28;20030;-74
2023/07/05 03:01:49;;;;;;;6.28;3.80;;;17.00;90.20;;;;;;4993392;28;20100;-74
2023/07/05 03:04:35;;;;;;;6.68;3.97;;;16.90;90.20;;;;;;5006391;28;20045;-74
2023/07/05 03:07:21;;;;;;;6.25;4.57;;;17.00;90.30;;;;;;5012637;28;20113;-74
2023/07/05 03:10:07;;;;;;;8.48;4.57;;;16.90;90.30;;;;;;5012011;28;20033;-74
2023/07/05 03:12:54;;;;;;;8.27;5.43;;;16.90;90.30;;;;;;5011124;28;20026;-74
2023/07/05 03:15:40;;;;;;;6.30;3.53;;;16.90;90.30;;;;;;4998035;28;20118;-73
2023/07/05 03:18:27;;;;;;;9.20;4.22;;;17.00;90.30;;;;;;4995538;28;20022;-74
2023/07/05 03:21:13;;;;;;;6.35;4.18;;;16.90;90.40;;;;;;4991964;28;20585;-74
2023/07/05 03:23:59;;;;;;;6.57;3.95;;;17.00;90.30;;;;;;4998552;28;20065;-75
2023/07/05 03:26:45;;;;;;;5.40;3.80;;;16.90;90.30;;;;;;5012091;28;20110;-74
2023/07/05 03:29:31;;;;;;;5.13;3.30;;;16.90;90.20;;;;;;5008113;28;20038;-73
2023/07/05 03:32:17;;;;;;;8.60;4.32;;;17.00;90.30;;;;;;5007649;28;20037;-73
2023/07/05 03:35:03;;;;;;;5.82;4.07;;;17.00;90.20;;;;;;5005851;28;20045;-73
2023/07/05 03:37:49;;;;;;;6.15;3.65;;;17.00;90.30;;;;;;5011172;28;20034;-73
2023/07/05 03:40:35;;;;;;;7.30;4.28;;;17.00;90.30;;;;;;5001339;28;20511;-73
2023/07/05 03:43:21;;;;;;;8.05;4.05;;;17.10;90.30;;;;;;5008374;28;20399;-73
2023/07/05 03:46:09;;;;;;;6.72;3.75;;;17.10;90.30;;;;;;4990525;28;20479;-73
2023/07/05 03:48:55;;;;;;;6.80;3.90;;;17.10;90.20;;;;;;4995823;28;20076;-74
2023/07/05 03:51:41;;;;;;;5.53;3.72;;;17.20;90.40;;;;;;5010189;28;20107;-74
2023/07/05 03:54:28;;;;;;;5.72;3.53;;;17.30;90.20;;;;;;4998833;28;20042;-74
2023/07/05 03:57:14;;;;;;;7.28;3.70;;;17.30;90.10;;;;;;4990816;28;20463;-74
2023/07/05 04:00:00;;;;;;;6.72;4.82;;;17.30;90.10;;;;;;5001794;28;20494;-74
2023/07/05 04:02:46;;;;;;;5.53;3.13;;;17.40;90.10;;;;;;5007625;28;20033;-74
2023/07/05 04:05:32;;;;;;;9.43;3.95;;;17.50;90.00;;;;;;4995339;28;20030;-74
2023/07/05 04:08:18;;;;;;;7.03;4.00;;;17.50;90.00;;;;;;4993599;28;20042;-75
2023/07/05 04:11:04;;;;;;;5.47;3.38;;;17.60;90.00;;;;;;5004151;28;20070;-74
2023/07/05 04:13:53;;;;;;;8.05;4.22;;;17.60;89.80;;;;;;5008536;28;20395;-74
2023/07/05 04:16:38;;;;;;;6.55;3.58;;;17.70;89.70;;;;;;5010213;28;20085;-74
2023/07/05 04:19:24;;;;;;;5.95;3.45;;;17.80;89.20;;;;;;5008160;28;20418;-75
2023/07/05 04:22:10;;;;;;;5.70;3.40;;;17.80;89.00;;;;;;5011271;28;20394;-75
2023/07/05 04:24:56;;;;;;;5.07;3.50;;;17.80;88.50;;;;;;5009335;28;20467;-75
2023/07/05 04:27:42;;;;;;;4.53;3.08;;;17.90;88.30;;;;;;5009912;28;20025;-75
2023/07/05 04:30:28;;;;;;;6.07;3.40;;;17.90;88.30;;;;;;5008349;28;20029;-74
2023/07/05 04:33:14;;;;;;;6.80;2.70;;;18.00;88.00;;;;;;5007496;28;20060;-75
2023/07/05 04:36:02;;;;;;;4.97;3.38;;;18.00;87.50;;;;;;4998349;28;20038;-73
2023/07/05 04:38:48;;;;;;;8.02;3.33;;;18.10;87.60;;;;;;5006654;28;20026;-73
2023/07/05 04:41:34;;;;;;;7.28;3.95;;;18.10;87.60;;;;;;5003943;28;20672;-73
2023/07/05 04:44:20;;;;;;;5.70;3.33;;;18.10;87.20;;;;;;5006089;28;20049;-72
2023/07/05 04:47:06;;;;;;;6.57;3.38;;;18.20;87.10;;;;;;5010416;28;20091;-73
2023/07/05 04:49:52;;;;;;;4.93;3.55;;;18.20;86.90;;;;;;4998988;28;20747;-71
2023/07/05 04:52:38;;;;;;;8.07;3.15;;;18.20;86.70;;;;;;5008502;28;20414;-72
2023/07/05 04:55:24;;;;;;;5.88;3.35;;;18.40;86.90;;;;;;5009545;28;20077;-72
2023/07/05 04:58:10;;;;;;;7.47;3.30;;;18.40;86.60;;;;;;5004105;28;20039;-71
2023/07/05 05:01:04;;;;;;;5.03;3.10;;;18.50;86.60;;;;;;5001429;28;20083;-72
2023/07/05 05:03:49;;;;;;;7.68;3.47;;;18.60;86.60;;;;;;5007506;28;20487;-72
2023/07/05 05:06:35;;;;;;;6.68;3.40;;;18.60;86.70;;;;;;5005974;28;20434;-72
2023/07/05 05:09:21;;;;;;;7.60;3.58;;;18.70;86.60;;;;;;4999878;28;20100;-73
2023/07/05 05:12:08;;;;;;;4.93;3.13;;;18.70;86.50;;;;;;5010244;28;20112;-73
2023/07/05 05:14:54;;;;;;;6.90;3.50;;;18.80;86.20;;;;;;4998879;28;20042;-73
2023/07/05 05:17:40;;;;;;;8.68;3.70;;;18.80;86.10;;;;;;4990604;28;20026;-73
2023/07/05 05:20:28;;;;;;;5.20;3.08;;;18.90;85.90;;;;;;5007859;28;20597;-73
2023/07/05 05:23:14;;;;;;;12.02;4.18;;;19.00;85.70;;;;;;5005993;28;20475;-73
2023/07/05 05:26:00;;;;;;;7.43;4.22;;;19.00;85.70;;;;;;5010544;28;20041;-72
2023/07/05 05:28:46;;;;;;;7.63;3.20;;;19.10;85.50;;;;;;5002629;28;20128;-72
2023/07/05 05:31:32;;;;;;;5.05;3.38;;;19.30;85.50;;;;;;4992789;28;20050;-73
2023/07/05 05:34:17;;;;;;;8.35;3.50;;;19.30;85.50;;;;;;5005056;28;20048;-72
2023/07/05 05:37:04;;;;;;;4.85;3.00;;;19.50;85.30;;;;;;5007848;28;20738;-73
2023/07/05 05:39:49;;;;;;;6.47;3.65;;;19.50;85.20;;;;;;5007460;28;20022;-73
2023/07/05 05:42:36;;;;;;;5.75;3.50;;;19.60;84.90;;;;;;5009520;28;20403;-74
2023/07/05 05:45:22;;;;;;;8.63;4.25;;;19.70;84.30;;;;;;4995562;28;20113;-75
2023/07/05 05:48:08;;;;;;;8.00;3.30;;;19.80;84.60;;;;;;4991130;28;20200;-75
2023/07/05 05:50:54;;;;;;;9.73;3.50;;;20.00;84.60;;;;;;5002976;28;20034;-75
2023/07/05 05:53:40;;;;;;;7.18;3.25;;;20.10;84.50;;;;;;5004931;28;20091;-75
2023/07/05 05:56:26;;;;;;;5.22;3.33;;;20.30;84.00;;;;;;4991933;28;20037;-74
2023/07/05 05:59:12;;;;;;;6.00;3.38;;;20.40;83.60;;;;;;5004124;28;20040;-76
2023/07/05 06:01:58;;;;;;;6.28;3.83;;;20.50;83.70;;;;;;5006681;28;20132;-72
2023/07/05 06:04:44;;;;;;;8.70;4.00;;;20.50;83.80;;;;;;5000401;28;20406;-71
2023/07/05 06:10:06;;;;;;;7.22;3.63;;;20.50;83.50;;;;;;5032024;23;20054;-72
2023/07/05 06:12:52;;;;;;;7.55;4.20;;;20.50;83.30;;;;;;5023494;23;20084;-73
2023/07/05 06:15:38;;;;;;;5.93;4.13;;;20.50;83.30;;;;;;5020567;28;20390;-74
2023/07/05 06:18:25;;;;;;;7.70;3.95;;;20.50;83.30;;;;;;5018129;28;20034;-77
2023/07/05 06:21:12;;;;;;;13.88;4.63;;;20.50;83.20;;;;;;5022635;28;20029;-77
2023/07/05 06:23:58;;;;;;;7.85;3.72;;;20.50;82.90;;;;;;5035500;28;20029;-77
2023/07/05 06:26:44;;;;;;;11.05;3.78;;;20.50;82.90;;;;;;5025731;28;20029;-74
2023/07/05 06:29:29;;;;;;;7.38;3.45;;;20.60;82.70;;;;;;5021738;28;20099;-74
2023/07/05 06:32:15;;;;;;;12.98;5.10;;;20.60;82.60;;;;;;5024474;28;20402;-74
2023/07/05 06:35:02;;;;;;;11.45;4.38;;;20.60;82.70;;;;;;5029879;28;20045;-74
2023/07/05 06:37:47;;;;;;;28.58;5.10;;;20.60;82.50;;;;;;5014877;28;20044;-74
2023/07/05 06:40:33;;;;;;;15.68;5.10;;;20.60;82.40;;;;;;5026404;28;20564;-73
2023/07/05 06:43:22;;;;;;;6.50;4.07;;;20.70;82.40;;;;;;5027906;28;20497;-74
2023/07/05 06:46:08;;;;;;;17.13;5.05;;;20.70;81.90;;;;;;5027277;28;20532;-75
2023/07/05 06:48:54;;;;;;;10.00;4.63;;;20.80;82.20;;;;;;5027612;28;20386;-72
2023/07/05 06:51:40;;;;;;;9.55;4.35;;;20.90;82.00;;;;;;5027137;28;20025;-69
2023/07/05 06:54:26;;;;;;;10.57;4.60;;;21.00;81.80;;;;;;5027858;28;20524;-74
2023/07/05 06:57:12;;;;;;;8.07;4.60;;;21.10;81.60;;;;;;5029827;28;20382;-73
2023/07/05 06:59:58;;;;;;;8.38;4.38;;;21.30;81.40;;;;;;5029468;28;20096;-73
2023/07/05 07:02:44;;;;;;;17.88;5.40;;;21.50;82.20;;;;;;5026727;28;20434;-72
2023/07/05 07:05:31;;;;;;;13.90;6.07;;;21.70;81.60;;;;;;5028101;28;20034;-73
2023/07/05 07:08:17;;;;;;;11.43;4.68;;;21.90;81.70;;;;;;5018607;28;20042;-74
2023/07/05 07:11:04;;;;;;;14.40;5.72;;;22.10;81.70;;;;;;5001472;28;20052;-74
2023/07/05 07:13:50;;;;;;;9.25;5.00;;;22.20;80.70;;;;;;5006005;28;20042;-76
2023/07/05 07:16:36;;;;;;;14.48;5.55;;;22.30;80.90;;;;;;5008974;28;20061;-73
2023/07/05 07:19:22;;;;;;;11.60;5.97;;;22.40;80.80;;;;;;5001972;28;20030;-74
2023/07/05 07:22:08;;;;;;;16.92;5.57;;;22.50;80.10;;;;;;5008606;28;20108;-72
2023/07/05 07:24:54;;;;;;;8.50;5.35;;;22.60;79.40;;;;;;5000045;28;20019;-78
2023/07/05 07:27:39;;;;;;;8.55;5.30;;;22.70;79.60;;;;;;5001569;28;20045;-80
2023/07/05 07:30:25;;;;;;;8.95;5.57;;;22.90;79.30;;;;;;5004188;28;20061;-79
2023/07/05 07:33:11;;;;;;;10.65;6.22;;;23.00;79.70;;;;;;5000819;28;20449;-80
2023/07/05 07:36:14;;;;;;;12.20;5.75;;;23.10;79.40;;;;;;5001604;28;20558;-78
2023/07/05 07:39:00;;;;;;;10.25;5.88;;;23.40;78.80;;;;;;5002097;28;20505;-76
2023/07/05 07:41:46;;;;;;;8.20;5.32;;;23.50;79.10;;;;;;5003870;28;20034;-81
2023/07/05 07:44:31;;;;;;;15.43;5.95;;;23.70;77.80;;;;;;5005761;28;20505;-71
2023/07/05 07:47:17;;;;;;;15.65;6.68;;;23.80;78.00;;;;;;4995088;28;20115;-70
2023/07/05 07:50:03;;;;;;;12.63;7.03;;;23.90;77.50;;;;;;5002801;28;20014;-69
2023/07/05 07:52:50;;;;;;;13.23;6.60;;;24.00;77.20;;;;;;5004253;28;20512;-70
2023/07/05 07:55:36;;;;;;;14.25;7.65;;;24.10;76.60;;;;;;5005666;28;20053;-71
2023/07/05 07:58:22;;;;;;;28.95;9.75;;;24.20;76.70;;;;;;5010616;28;20038;-69
2023/07/05 08:01:19;;;;;;;88.22;11.63;;;24.20;76.60;;;;;;5004955;28;20379;-69
2023/07/05 08:04:08;;;;;;;51.97;11.05;;;24.30;76.00;;;;;;5004844;28;20384;-70
2023/07/05 08:06:54;;;;;;;37.97;10.70;;;24.30;76.80;;;;;;5011575;28;20398;-71
2023/07/05 08:09:40;;;;;;;32.28;9.57;;;24.40;76.00;;;;;;5006031;28;20117;-69
2023/07/05 08:12:26;;;;;;;19.23;7.15;;;24.40;75.40;;;;;;5008457;28;20116;-69
2023/07/05 08:15:12;;;;;;;31.73;9.98;;;24.40;75.20;;;;;;5000680;28;20031;-70
2023/07/05 08:17:58;;;;;;;27.00;10.27;;;24.50;75.60;;;;;;4991005;28;20022;-70
2023/07/05 08:20:44;;;;;;;181.13;32.00;;;24.50;75.60;;;;;;5006529;28;20053;-69
2023/07/05 08:23:29;;;;;;;59.05;12.60;;;24.50;75.70;;;;;;4997052;28;20054;-70
2023/07/05 08:26:16;;;;;;;20.55;8.32;;;24.50;75.30;;;;;;5000406;28;20034;-70
2023/07/05 08:29:03;;;;;;;19.08;8.75;;;24.50;74.70;;;;;;5002696;28;20026;-71
2023/07/05 08:31:49;;;;;;;12.50;8.13;;;24.50;74.70;;;;;;5006623;28;20040;-71
2023/07/05 08:34:35;;;;;;;24.15;9.35;;;24.60;74.50;;;;;;5007133;28;20419;-70
2023/07/05 08:37:22;;;;;;;27.90;8.85;;;24.50;74.30;;;;;;4992520;28;20038;-70
2023/07/05 08:40:11;;;;;;;56.85;12.27;;;24.50;74.40;;;;;;4997348;28;20486;-70
2023/07/05 08:43:11;;;;;;;17.33;8.38;;;24.50;74.80;;;;;;5005249;28;20038;-70
2023/07/05 08:46:05;;;;;;;27.60;9.38;;;24.40;75.50;;;;;;4990655;28;20365;-70
2023/07/05 08:48:58;;;;;;;28.08;9.35;;;24.30;75.80;;;;;;5012314;28;20047;-70
2023/07/05 08:51:44;;;;;;;12.93;8.65;;;24.30;75.90;;;;;;4997527;28;20485;-69
2023/07/05 08:54:34;;;;;;;24.90;9.15;;;24.30;76.40;;;;;;5003490;28;20410;-69
2023/07/05 08:57:27;;;;;;;15.43;8.30;;;24.20;76.10;;;;;;4996029;28;20057;-69
2023/07/05 09:00:17;;;;;;;19.27;7.80;;;24.20;76.90;;;;;;5002713;28;20461;-69
2023/07/05 09:03:10;;;;;;;13.32;7.03;;;24.20;77.00;;;;;;4996233;28;20038;-70
2023/07/05 09:06:23;;;;;;;13.93;7.10;;;24.20;77.50;;;;;;4998139;28;20033;-70
2023/07/05 09:09:38;;;;;;;11.93;6.70;;;24.20;77.00;;;;;;5001332;28;20403;-70
2023/07/05 09:12:34;;;;;;;13.75;6.47;;;24.30;76.80;;;;;;4999344;28;20058;-70
2023/07/05 09:15:32;;;;;;;11.07;6.40;;;24.40;76.40;;;;;;4991061;28;20662;-69
2023/07/05 09:18:46;;;;;;;10.98;6.45;;;24.50;76.00;;;;;;4998584;28;20121;-71
2023/07/05 09:21:34;;;;;;;9.90;6.22;;;24.50;75.80;;;;;;5008363;28;20458;-70
2023/07/05 09:24:30;;;;;;;16.95;7.20;;;24.60;75.60;;;;;;5005048;28;20065;-70
2023/07/05 09:27:25;;;;;;;10.10;6.30;;;24.60;75.20;;;;;;4995225;28;20513;-69
2023/07/05 09:30:14;;;;;;;14.65;5.75;;;24.60;75.00;;;;;;4991880;28;20518;-69
2023/07/05 09:33:19;;;;;;;12.43;5.50;;;24.70;75.00;;;;;;5005125;28;20034;-69
2023/07/05 09:36:18;;;;;;;9.40;5.88;;;24.70;75.70;;;;;;4997810;28;20074;-70
2023/07/05 09:39:17;;;;;;;11.32;5.95;;;24.70;74.70;;;;;;5005144;28;20042;-70
2023/07/05 09:42:06;;;;;;;18.63;5.65;;;24.70;74.80;;;;;;5005364;28;20033;-69
2023/07/05 09:44:52;;;;;;;9.07;5.40;;;24.70;74.60;;;;;;5002018;28;20066;-71
2023/07/05 09:47:37;;;;;;;12.57;6.30;;;24.70;74.40;;;;;;5006563;28;20034;-71
2023/07/05 09:50:23;;;;;;;11.63;4.72;;;24.70;74.30;;;;;;4992383;28;20779;-70
2023/07/05 09:53:32;;;;;;;8.75;4.32;;;24.70;74.90;;;;;;4991802;28;20030;-70
2023/07/05 09:56:27;;;;;;;7.00;4.45;;;24.70;74.50;;;;;;4994209;28;20445;-70
2023/07/05 09:59:18;;;;;;;17.48;6.63;;;24.60;74.60;;;;;;4998234;28;20088;-71
2023/07/05 10:02:10;;;;;;;11.55;5.68;;;24.70;74.60;;;;;;4994714;28;20034;-70
2023/07/05 10:04:58;;;;;;;16.40;6.57;;;24.70;75.20;;;;;;4995412;28;20139;-69
2023/07/05 10:08:00;;;;;;;13.85;5.90;;;24.70;75.40;;;;;;4994787;28;20100;-71
2023/07/05 10:10:46;;;;;;;8.93;4.72;;;24.80;75.60;;;;;;4995755;28;20026;-70
2023/07/05 10:13:32;;;;;;;12.88;4.93;;;24.90;75.90;;;;;;4991898;28;20107;-70
2023/07/05 10:16:18;;;;;;;10.13;4.90;;;25.00;76.00;;;;;;4995811;28;20078;-70
2023/07/05 10:19:04;;;;;;;18.00;4.80;;;25.10;75.70;;;;;;4994369;28;21517;-70
2023/07/05 10:22:13;;;;;;;7.90;3.90;;;25.10;75.90;;;;;;4993729;28;20065;-70
2023/07/05 10:25:05;;;;;;;10.88;4.30;;;25.20;75.80;;;;;;4995837;28;20030;-70
2023/07/05 10:27:51;;;;;;;7.97;3.72;;;25.30;76.10;;;;;;4996632;28;20196;-70
2023/07/05 10:30:55;;;;;;;7.95;3.97;;;25.30;76.40;;;;;;4993200;28;20054;-70
2023/07/05 10:33:46;;;;;;;14.70;4.90;;;25.50;76.60;;;;;;4995202;28;20172;-70
2023/07/05 10:36:32;;;;;;;12.80;4.88;;;25.70;76.50;;;;;;4995224;28;20513;-69
2023/07/05 10:39:26;;;;;;;15.55;4.15;;;25.80;76.00;;;;;;4996027;28;20034;-70
2023/07/05 10:42:12;;;;;;;5.65;3.63;;;26.00;75.40;;;;;;4995637;28;20038;-70
2023/07/05 10:45:00;;;;;;;6.38;3.40;;;26.10;75.70;;;;;;4994745;28;20639;-70
2023/07/05 10:47:52;;;;;;;10.15;4.20;;;26.20;75.90;;;;;;4993001;28;20399;-69
2023/07/05 10:50:39;;;;;;;7.53;3.55;;;26.30;75.50;;;;;;4994102;28;20404;-69
2023/07/05 10:53:27;;;;;;;7.90;3.42;;;26.30;75.30;;;;;;4992962;28;20029;-69
2023/07/05 10:56:21;;;;;;;6.50;3.22;;;26.30;75.40;;;;;;4994654;28;20038;-69
2023/07/05 10:59:29;;;;;;;10.30;3.78;;;26.30;75.30;;;;;;4998372;28;20030;-69
2023/07/05 11:02:27;;;;;;;6.05;2.70;;;26.30;75.40;;;;;;4994194;28;20506;-69
2023/07/05 11:05:42;;;;;;;10.55;3.92;;;26.20;75.30;;;;;;4992496;28;20030;-69
2023/07/05 11:08:30;;;;;;;12.52;4.80;;;26.20;75.60;;;;;;4993510;28;20402;-70
2023/07/05 11:11:27;;;;;;;14.07;3.60;;;26.20;75.40;;;;;;4993271;28;20048;-70
2023/07/05 11:14:15;;;;;;;9.23;3.20;;;26.10;75.90;;;;;;4992796;28;21857;-70
2023/07/05 11:17:03;;;;;;;7.68;3.33;;;26.10;76.10;;;;;;4992581;28;20511;-69
2023/07/05 11:19:49;;;;;;;8.70;2.97;;;26.10;76.40;;;;;;4995840;28;20042;-70
2023/07/05 11:22:43;;;;;;;7.68;3.47;;;26.10;76.70;;;;;;4992247;28;20395;-70
2023/07/05 11:25:53;;;;;;;6.07;3.13;;;26.20;77.50;;;;;;4993730;28;20084;-70
2023/07/05 11:28:43;;;;;;;9.05;3.45;;;26.30;77.40;;;;;;4994072;28;20045;-69
2023/07/05 11:31:29;;;;;;;15.65;3.00;;;26.40;77.90;;;;;;4993206;28;20478;-69
2023/07/05 11:34:21;;;;;;;8.63;3.22;;;26.50;77.80;;;;;;4993048;28;20030;-69
2023/07/05 11:37:15;;;;;;;19.95;3.38;;;26.60;77.70;;;;;;4992180;28;20038;-69
2023/07/05 11:40:05;;;;;;;12.43;3.40;;;26.60;77.20;;;;;;4993752;28;20044;-69
2023/07/05 11:42:51;;;;;;;10.27;2.50;;;26.70;77.40;;;;;;4991874;28;20058;-69
2023/07/05 11:45:46;;;;;;;4.45;2.67;;;26.70;77.30;;;;;;4992210;28;20095;-69
2023/07/05 11:48:50;;;;;;;10.15;2.45;;;26.70;76.80;;;;;;4997474;28;20037;-69
2023/07/05 11:51:36;;;;;;;5.28;2.60;;;26.70;77.20;;;;;;5010082;28;20034;-69
2023/07/05 11:54:35;;;;;;;7.57;2.33;;;26.80;76.50;;;;;;4995002;28;20033;-69
2023/07/05 11:57:22;;;;;;;5.45;2.40;;;26.80;76.50;;;;;;4995135;28;20054;-69
2023/07/05 12:00:18;;;;;;;16.13;2.85;;;26.90;76.70;;;;;;4998976;28;20031;-69
2023/07/05 12:03:13;;;;;;;3.13;1.77;;;26.90;77.20;;;;;;5007374;28;20112;-69
2023/07/05 12:06:09;;;;;;;6.57;2.03;;;27.00;77.30;;;;;;5003278;28;20490;-69
2023/07/05 12:08:59;;;;;;;4.40;1.98;;;27.00;76.70;;;;;;5010065;28;20245;-69
2023/07/05 12:11:54;;;;;;;4.30;2.38;;;27.00;76.60;;;;;;4999334;28;20045;-69
2023/07/05 12:14:43;;;;;;;4.28;2.55;;;27.00;76.50;;;;;;4998658;28;20030;-69
2023/07/05 12:17:29;;;;;;;7.80;2.53;;;27.10;76.80;;;;;;5007091;28;20231;-69
2023/07/05 12:20:25;;;;;;;4.72;2.20;;;27.10;76.10;;;;;;4998781;28;20453;-69
2023/07/05 12:23:13;;;;;;;3.97;2.30;;;27.20;76.00;;;;;;5008332;28;20287;-69
2023/07/05 12:26:04;;;;;;;14.20;2.40;;;27.20;75.80;;;;;;5004459;28;20030;-71
2023/07/05 12:28:51;;;;;;;9.40;2.17;;;27.30;75.40;;;;;;5009224;28;20474;-69
2023/07/05 12:31:37;;;;;;;9.65;2.42;;;27.30;75.10;;;;;;4996066;28;20030;-68
2023/07/05 12:34:24;;;;;;;11.18;3.15;;;27.30;74.90;;;;;;5006685;28;20034;-69
2023/07/05 12:37:10;;;;;;;3.53;1.83;;;27.30;74.80;;;;;;5009460;28;20445;-68
2023/07/05 12:40:17;;;;;;;5.72;2.50;;;27.30;74.60;;;;;;5007468;28;20033;-69
2023/07/05 12:43:06;;;;;;;7.20;2.47;;;27.30;73.90;;;;;;5007111;28;20030;-69
2023/07/05 12:45:51;;;;;;;11.25;2.63;;;27.30;73.70;;;;;;5003042;28;20034;-69
2023/07/05 12:48:38;;;;;;;4.45;2.53;;;27.30;73.60;;;;;;4996376;28;20125;-68
2023/07/05 12:51:28;;;;;;;5.00;1.58;;;27.20;73.50;;;;;;5007017;28;20093;-69
2023/07/05 12:54:14;;;;;;;5.00;2.35;;;27.30;73.60;;;;;;5004913;28;20390;-68
2023/07/05 12:57:00;;;;;;;9.13;2.17;;;27.20;73.40;;;;;;4991704;28;20049;-69
2023/07/05 12:59:47;;;;;;;8.38;2.08;;;27.30;73.80;;;;;;4998955;28;20030;-69
2023/07/05 13:02:33;;;;;;;3.53;1.67;;;27.30;73.40;;;;;;4998315;28;20038;-69
2023/07/05 13:05:20;;;;;;;4.22;1.92;;;27.40;72.90;;;;;;4997145;28;20065;-69
2023/07/05 13:08:07;;;;;;;7.65;1.50;;;27.30;72.70;;;;;;5007240;28;20069;-70
2023/07/05 13:10:54;;;;;;;7.88;2.03;;;27.30;72.20;;;;;;5004370;28;20064;-69
2023/07/05 13:13:40;;;;;;;7.55;1.95;;;27.40;72.60;;;;;;4990250;28;20543;-69
2023/07/05 13:16:31;;;;;;;14.20;2.70;;;27.40;72.50;;;;;;5005125;28;20050;-70
2023/07/05 13:19:18;;;;;;;19.40;4.50;;;27.40;72.40;;;;;;5005934;28;20199;-69
2023/07/05 13:22:30;;;;;;;14.45;2.85;;;27.40;72.40;;;;;;5000548;28;20041;-69
2023/07/05 13:25:30;;;;;;;14.40;2.67;;;27.40;72.10;;;;;;5002242;28;20041;-69
2023/07/05 13:28:25;;;;;;;17.23;2.38;;;27.40;72.10;;;;;;5009977;28;20030;-69
2023/07/05 13:31:19;;;;;;;4.10;2.20;;;27.40;72.00;;;;;;5002496;28;20034;-69
2023/07/05 13:34:06;;;;;;;3.67;1.75;;;27.30;72.20;;;;;;4989783;28;20038;-71
2023/07/05 13:37:00;;;;;;;6.03;2.17;;;27.10;72.70;;;;;;4998236;28;20038;-71
2023/07/05 13:39:46;;;;;;;8.55;2.22;;;26.90;75.50;;;;;;4996693;28;20054;-71
2023/07/05 13:42:32;;;;;;;4.22;2.10;;;26.70;76.00;;;;;;5001271;28;20123;-70
2023/07/05 13:45:26;;;;;;;3.83;1.80;;;26.50;77.20;;;;;;5007375;28;20033;-70
2023/07/05 13:48:12;;;;;;;4.55;2.00;;;26.40;76.70;;;;;;5009537;28;20414;-70
2023/07/05 13:50:58;;;;;;;3.40;2.10;;;26.40;76.90;;;;;;5013251;28;20041;-70
2023/07/05 13:53:44;;;;;;;4.88;2.40;;;26.40;77.20;;;;;;4995228;28;20085;-71
2023/07/05 13:56:30;;;;;;;3.35;1.83;;;26.30;76.90;;;;;;5004697;28;20046;-70
2023/07/05 13:59:18;;;;;;;5.93;2.33;;;26.40;76.70;;;;;;4999478;28;20167;-70
2023/07/05 14:02:26;;;;;;;2.95;1.98;;;26.50;76.30;;;;;;5004462;28;20096;-70
2023/07/05 14:05:12;;;;;;;7.18;2.70;;;26.50;76.00;;;;;;4997717;28;20057;-72
2023/07/05 14:08:00;;;;;;;3.83;2.10;;;26.50;74.90;;;;;;5009311;28;20120;-70
2023/07/05 14:10:47;;;;;;;4.45;2.20;;;26.50;74.00;;;;;;5002417;28;20394;-69
2023/07/05 14:13:33;;;;;;;4.43;2.38;;;26.60;74.00;;;;;;5007514;28;20056;-69
2023/07/05 14:16:20;;;;;;;3.78;2.40;;;26.70;73.80;;;;;;5001987;28;20046;-70
2023/07/05 14:19:06;;;;;;;4.30;2.00;;;26.80;73.20;;;;;;4995428;28;20448;-71
2023/07/05 14:21:52;;;;;;;6.13;2.33;;;26.80;72.90;;;;;;5009955;28;20406;-70
2023/07/05 14:24:39;;;;;;;3.58;1.90;;;26.90;73.10;;;;;;5006902;28;20072;-69
2023/07/05 14:27:26;;;;;;;4.22;2.65;;;26.90;72.40;;;;;;5001628;28;20044;-70
2023/07/05 14:30:13;;;;;;;4.40;2.28;;;27.00;72.10;;;;;;5004530;28;20117;-68
2023/07/05 14:32:59;;;;;;;3.63;1.95;;;27.20;71.60;;;;;;5002792;28;20117;-68
2023/07/05 14:35:45;;;;;;;3.75;2.22;;;27.30;71.60;;;;;;5006132;28;20045;-68
2023/07/05 14:38:31;;;;;;;4.32;2.47;;;27.30;70.60;;;;;;5001307;28;20030;-68
2023/07/05 14:41:23;;;;;;;5.97;2.80;;;27.40;69.10;;;;;;5005233;28;20038;-68